KCLL/CLL METAR and TAF weather

Enter ICAO airport designator
Station Type Date Time Source
KCLL METAR 2020/04/09 19:53 UTC NOAA

KCLL 091953Z 28005KT 8SM CLR 31/24 A2981 RMK AO2 SLP087 T03060239


Station Type Date Time Source
KCLL Decoded METAR 2020/04/09 19:53 UTC NOAA

COLLEGE STN EASTERWOOD FIELD, TX, United States (KCLL) 30-35N 096-22W 96M
Apr 09, 2020 - 03:53 PM EDT / 2020.04.09 1953 UTC
Wind: from the W (280 degrees) at 6 MPH (5 KT):0
Visibility: 8 mile(s):0
Sky conditions: clear
Temperature: 87.1 F (30.6 C)
Heat index: 96.4 F (35.8 C):1
Dew Point: 75.0 F (23.9 C)
Relative Humidity: 67%
Pressure (altimeter): 29.81 in. Hg (1009 hPa)
ob: KCLL 091953Z 28005KT 8SM CLR 31/24 A2981 RMK AO2 SLP087 T03060239
cycle: 20

Station Type Date Time Source
KCLL TAF 2020/04/09 18:42 UTC NOAA

TAF KCLL 091740Z 0918/1018 VRB05KT P6SM FEW015 BKN250
FM092100 35006KT P6SM -SHRA VCTS SCT035CB OVC100
FM092200 34010KT 4SM TSRA BR SCT025CB OVC040
TEMPO 0922/0924 VRB20G35KT 1SM +TSRA BKN025CB OVC040
FM100100 36010KT 4SM -SHRA BR VCTS SCT020CB OVC040
FM100400 02006KT P6SM VCSH BKN015 BKN040
FM100600 03009KT P6SM SCT008 BKN020
FM101500 06014KT P6SM SCT015 BKN040

Example: see airport list